FDX6092 EDDK-LFPG
Flight info
| Callsign | FDX6092 |
|---|---|
| Flight time | 0h 55m |
| Altitude | 24000 |
| Route | NVO3W NVO Y868 SOGRI UM617 CIV Y50 MATIX |
| Aircraft | B77L/H-SDE1E2E3FGHIJ2J3J4J5M1RWXY/LB1D1 |
Departure
| Time | 2026-05-08 19:45 |
|---|---|
| Airport | Cologne Bonn Airport (EDDK) |
Arrival
| Time | 2026-05-08 20:40 |
|---|---|
| Airport | Charles de Gaulle International Airport (LFPG) |
| Time | Latitude | Longitude | Altitude | Speed | Heading |
|---|---|---|---|---|---|
| 2026-05-08 18:49 | 50.87536 | 7.12835 | 237 ft | 0 kts | 227° |
| 2026-05-08 19:33 | 50.87544 | 7.12851 | 221 ft | 4 kts | 227° |
| 2026-05-08 19:34 | 50.87557 | 7.12872 | 224 ft | 4 kts | 227° |
| 2026-05-08 19:34 | 50.87578 | 7.12916 | 241 ft | 4 kts | 250° |
| 2026-05-08 19:34 | 50.87582 | 7.12943 | 237 ft | 4 kts | 272° |
| 2026-05-08 19:34 | 50.87575 | 7.12980 | 237 ft | 3 kts | 314° |
| 2026-05-08 19:35 | 50.87572 | 7.12985 | 237 ft | 1 kts | 317° |
| 2026-05-08 19:40 | 50.87572 | 7.12984 | 237 ft | 0 kts | 317° |
| 2026-05-08 19:40 | 50.87602 | 7.12941 | 237 ft | 8 kts | 317° |
| 2026-05-08 19:40 | 50.87644 | 7.12880 | 237 ft | 9 kts | 317° |
| 2026-05-08 19:41 | 50.87692 | 7.12809 | 237 ft | 9 kts | 317° |
| 2026-05-08 19:41 | 50.87743 | 7.12736 | 237 ft | 12 kts | 317° |
| 2026-05-08 19:41 | 50.87810 | 7.12643 | 237 ft | 13 kts | 324° |
| 2026-05-08 19:41 | 50.87870 | 7.12613 | 237 ft | 12 kts | 357° |
| 2026-05-08 19:42 | 50.87972 | 7.12693 | 238 ft | 10 kts | 48° |
| 2026-05-08 19:42 | 50.87990 | 7.12738 | 240 ft | 0 kts | 64° |
| 2026-05-08 19:42 | 50.87993 | 7.12748 | 240 ft | 4 kts | 66° |
| 2026-05-08 19:43 | 50.88002 | 7.12788 | 242 ft | 4 kts | 76° |
| 2026-05-08 19:43 | 50.88006 | 7.12836 | 243 ft | 9 kts | 82° |
| 2026-05-08 19:43 | 50.88022 | 7.12916 | 243 ft | 6 kts | 84° |
| 2026-05-08 19:43 | 50.87999 | 7.12975 | 243 ft | 10 kts | 135° |
| 2026-05-08 19:44 | 50.87843 | 7.13205 | 243 ft | 60 kts | 137° |
| 2026-05-08 19:44 | 50.87347 | 7.13922 | 246 ft | 130 kts | 138° |
| 2026-05-08 19:44 | 50.86544 | 7.15087 | 282 ft | 180 kts | 137° |
| 2026-05-08 19:44 | 50.85544 | 7.16531 | 593 ft | 197 kts | 137° |
| 2026-05-08 19:45 | 50.84537 | 7.17965 | 1377 ft | 193 kts | 137° |
| 2026-05-08 19:45 | 50.83509 | 7.19402 | 1925 ft | 206 kts | 138° |
| 2026-05-08 19:45 | 50.82355 | 7.20973 | 2245 ft | 231 kts | 139° |
| 2026-05-08 19:45 | 50.81136 | 7.22611 | 3093 ft | 226 kts | 139° |
| 2026-05-08 19:46 | 50.79911 | 7.24154 | 3886 ft | 225 kts | 149° |
| 2026-05-08 19:46 | 50.78392 | 7.24831 | 4444 ft | 232 kts | 186° |
| 2026-05-08 19:46 | 50.75821 | 7.22110 | 5946 ft | 232 kts | 244° |
| 2026-05-08 19:47 | 50.75211 | 7.19751 | 6670 ft | 232 kts | 252° |
| 2026-05-08 19:47 | 50.74964 | 7.17270 | 7358 ft | 231 kts | 274° |
| 2026-05-08 19:47 | 50.75220 | 7.14689 | 7732 ft | 248 kts | 282° |
| 2026-05-08 19:47 | 50.75639 | 7.11918 | 8041 ft | 270 kts | 283° |
| 2026-05-08 19:48 | 50.76084 | 7.08996 | 8676 ft | 277 kts | 283° |
| 2026-05-08 19:48 | 50.76531 | 7.06003 | 9498 ft | 281 kts | 282° |
| 2026-05-08 19:48 | 50.76965 | 7.02990 | 10327 ft | 282 kts | 282° |
| 2026-05-08 19:48 | 50.77400 | 6.99898 | 10783 ft | 300 kts | 281° |
| 2026-05-08 19:49 | 50.77866 | 6.96534 | 10976 ft | 326 kts | 281° |
| 2026-05-08 19:49 | 50.78365 | 6.92888 | 11177 ft | 353 kts | 281° |
| 2026-05-08 19:49 | 50.78894 | 6.89006 | 11702 ft | 368 kts | 281° |
| 2026-05-08 19:49 | 50.79437 | 6.85005 | 12487 ft | 376 kts | 281° |
| 2026-05-08 19:50 | 50.79989 | 6.80928 | 13437 ft | 382 kts | 281° |
| 2026-05-08 19:50 | 50.80546 | 6.76794 | 14325 ft | 387 kts | 281° |
| 2026-05-08 19:50 | 50.81110 | 6.72610 | 15182 ft | 392 kts | 281° |
| 2026-05-08 19:50 | 50.81677 | 6.68372 | 16035 ft | 396 kts | 281° |
| 2026-05-08 19:51 | 50.82245 | 6.64089 | 16880 ft | 400 kts | 280° |
| 2026-05-08 19:51 | 50.82581 | 6.59704 | 17635 ft | 405 kts | 272° |
| 2026-05-08 19:51 | 50.82644 | 6.55227 | 18418 ft | 410 kts | 269° |
| 2026-05-08 19:51 | 50.82619 | 6.50705 | 19157 ft | 413 kts | 269° |
| 2026-05-08 19:52 | 50.82591 | 6.46146 | 19895 ft | 417 kts | 269° |
| 2026-05-08 19:52 | 50.82586 | 6.41537 | 20595 ft | 421 kts | 270° |
| 2026-05-08 19:52 | 50.82605 | 6.36889 | 21277 ft | 425 kts | 270° |
| 2026-05-08 19:52 | 50.82641 | 6.32185 | 21960 ft | 430 kts | 271° |
| 2026-05-08 19:53 | 50.82684 | 6.27441 | 22647 ft | 434 kts | 271° |
| 2026-05-08 19:53 | 50.82730 | 6.22643 | 23321 ft | 438 kts | 271° |
| 2026-05-08 19:53 | 50.82774 | 6.17797 | 23935 ft | 442 kts | 271° |
| 2026-05-08 19:53 | 50.82817 | 6.12901 | 24119 ft | 451 kts | 271° |
| 2026-05-08 19:54 | 50.82858 | 6.07865 | 24117 ft | 464 kts | 271° |
| 2026-05-08 19:54 | 50.82896 | 6.02714 | 24115 ft | 471 kts | 271° |
| 2026-05-08 19:54 | 50.82895 | 5.97527 | 24111 ft | 472 kts | 269° |
| 2026-05-08 19:54 | 50.82833 | 5.92348 | 24103 ft | 471 kts | 269° |
| 2026-05-08 19:55 | 50.82733 | 5.87173 | 24099 ft | 470 kts | 268° |
| 2026-05-08 19:55 | 50.82604 | 5.82010 | 24102 ft | 470 kts | 268° |
| 2026-05-08 19:55 | 50.82471 | 5.76851 | 24104 ft | 470 kts | 268° |
| 2026-05-08 19:55 | 50.82345 | 5.71695 | 24104 ft | 469 kts | 268° |
| 2026-05-08 19:56 | 50.82223 | 5.66531 | 24105 ft | 470 kts | 268° |
| 2026-05-08 19:56 | 50.82101 | 5.61371 | 24103 ft | 470 kts | 268° |
| 2026-05-08 19:56 | 50.81975 | 5.56208 | 24105 ft | 470 kts | 268° |
| 2026-05-08 19:56 | 50.81848 | 5.51043 | 24108 ft | 471 kts | 268° |
| 2026-05-08 19:57 | 50.81718 | 5.45865 | 24108 ft | 471 kts | 268° |
| 2026-05-08 19:57 | 50.81587 | 5.40692 | 24107 ft | 472 kts | 268° |
| 2026-05-08 19:57 | 50.81452 | 5.35509 | 24107 ft | 472 kts | 268° |
| 2026-05-08 19:57 | 50.81315 | 5.30325 | 24108 ft | 472 kts | 268° |
| 2026-05-08 19:58 | 50.81176 | 5.25139 | 24107 ft | 472 kts | 268° |
| 2026-05-08 19:58 | 50.81035 | 5.19953 | 24112 ft | 472 kts | 268° |
| 2026-05-08 19:58 | 50.80893 | 5.14773 | 24108 ft | 472 kts | 268° |
| 2026-05-08 19:58 | 50.80744 | 5.09588 | 24110 ft | 472 kts | 268° |
| 2026-05-08 19:59 | 50.80407 | 5.04420 | 24110 ft | 473 kts | 262° |
| 2026-05-08 19:59 | 50.79739 | 4.99328 | 24111 ft | 474 kts | 256° |
| 2026-05-08 19:59 | 50.78799 | 4.94401 | 24118 ft | 474 kts | 254° |
| 2026-05-08 19:59 | 50.77830 | 4.89423 | 24117 ft | 475 kts | 254° |
| 2026-05-08 20:00 | 50.76875 | 4.84434 | 24117 ft | 475 kts | 254° |
| 2026-05-08 20:00 | 50.75931 | 4.79437 | 24119 ft | 475 kts | 255° |
| 2026-05-08 20:00 | 50.74993 | 4.74436 | 24120 ft | 475 kts | 255° |
| 2026-05-08 20:00 | 50.74057 | 4.69435 | 24121 ft | 475 kts | 255° |
| 2026-05-08 20:01 | 50.73119 | 4.64437 | 24119 ft | 475 kts | 255° |
| 2026-05-08 20:01 | 50.72176 | 4.59437 | 24119 ft | 476 kts | 255° |
| 2026-05-08 20:01 | 50.71225 | 4.54439 | 24124 ft | 476 kts | 254° |
| 2026-05-08 20:01 | 50.70266 | 4.49431 | 24127 ft | 477 kts | 254° |
| 2026-05-08 20:02 | 50.69306 | 4.44430 | 24124 ft | 477 kts | 254° |
| 2026-05-08 20:02 | 50.68343 | 4.39427 | 24122 ft | 477 kts | 254° |
| 2026-05-08 20:02 | 50.67377 | 4.34415 | 24121 ft | 477 kts | 254° |
| 2026-05-08 20:02 | 50.66410 | 4.29409 | 24121 ft | 477 kts | 254° |
| 2026-05-08 20:03 | 50.65442 | 4.24406 | 24114 ft | 477 kts | 254° |
| 2026-05-08 20:03 | 50.64471 | 4.19405 | 24117 ft | 477 kts | 254° |
| 2026-05-08 20:03 | 50.63501 | 4.14410 | 24112 ft | 477 kts | 254° |
| 2026-05-08 20:03 | 50.62527 | 4.09415 | 24104 ft | 477 kts | 254° |
| 2026-05-08 20:04 | 50.61550 | 4.04423 | 24106 ft | 477 kts | 254° |
| 2026-05-08 20:04 | 50.60574 | 3.99437 | 24106 ft | 477 kts | 254° |
| 2026-05-08 20:04 | 50.59465 | 3.94560 | 24096 ft | 473 kts | 244° |
| 2026-05-08 20:04 | 50.57569 | 3.90321 | 24106 ft | 478 kts | 226° |
| 2026-05-08 20:05 | 50.54894 | 3.87201 | 24113 ft | 483 kts | 208° |
| 2026-05-08 20:05 | 50.51789 | 3.85349 | 24105 ft | 487 kts | 194° |
| 2026-05-08 20:05 | 50.48435 | 3.84619 | 24093 ft | 489 kts | 179° |
| 2026-05-08 20:05 | 50.45065 | 3.85143 | 24109 ft | 487 kts | 171° |
| 2026-05-08 20:06 | 50.41704 | 3.85917 | 24103 ft | 488 kts | 172° |
| 2026-05-08 20:06 | 50.38331 | 3.86600 | 24110 ft | 489 kts | 173° |
| 2026-05-08 20:06 | 50.34950 | 3.87187 | 24103 ft | 489 kts | 174° |
| 2026-05-08 20:06 | 50.31561 | 3.87741 | 24101 ft | 489 kts | 174° |
| 2026-05-08 20:07 | 50.28174 | 3.88302 | 24103 ft | 489 kts | 174° |
| 2026-05-08 20:07 | 50.24792 | 3.88870 | 24100 ft | 489 kts | 174° |
| 2026-05-08 20:07 | 50.21412 | 3.89441 | 24101 ft | 488 kts | 174° |
| 2026-05-08 20:07 | 50.18038 | 3.90012 | 24101 ft | 488 kts | 174° |
| 2026-05-08 20:08 | 50.14664 | 3.90582 | 24097 ft | 487 kts | 174° |
| 2026-05-08 20:08 | 50.11296 | 3.91125 | 24094 ft | 485 kts | 176° |
| 2026-05-08 20:08 | 50.07921 | 3.91030 | 24085 ft | 486 kts | 187° |
| 2026-05-08 20:08 | 50.04607 | 3.90017 | 24102 ft | 487 kts | 195° |
| 2026-05-08 20:09 | 50.01386 | 3.88374 | 24100 ft | 487 kts | 203° |
| 2026-05-08 20:09 | 49.98333 | 3.86126 | 24096 ft | 486 kts | 207° |
| 2026-05-08 20:09 | 49.95338 | 3.83848 | 24076 ft | 470 kts | 207° |
| 2026-05-08 20:09 | 49.92413 | 3.81662 | 24057 ft | 463 kts | 206° |
| 2026-05-08 20:10 | 49.89581 | 3.79572 | 23710 ft | 439 kts | 206° |
| 2026-05-08 20:10 | 49.86884 | 3.77598 | 22978 ft | 419 kts | 206° |
| 2026-05-08 20:10 | 49.84304 | 3.75717 | 22189 ft | 402 kts | 206° |
| 2026-05-08 20:10 | 49.81818 | 3.73908 | 21367 ft | 389 kts | 206° |
| 2026-05-08 20:11 | 49.79400 | 3.72150 | 20452 ft | 380 kts | 206° |
| 2026-05-08 20:11 | 49.76990 | 3.70399 | 19709 ft | 384 kts | 205° |
| 2026-05-08 20:11 | 49.74573 | 3.68732 | 19391 ft | 377 kts | 200° |
| 2026-05-08 20:11 | 49.72086 | 3.67780 | 19094 ft | 371 kts | 188° |
| 2026-05-08 20:12 | 49.69539 | 3.67404 | 18785 ft | 366 kts | 184° |
| 2026-05-08 20:12 | 49.67008 | 3.67201 | 18434 ft | 362 kts | 182° |
| 2026-05-08 20:12 | 49.64502 | 3.67044 | 18024 ft | 359 kts | 182° |
| 2026-05-08 20:12 | 49.62015 | 3.66897 | 17581 ft | 357 kts | 182° |
| 2026-05-08 20:13 | 49.59576 | 3.66524 | 17014 ft | 352 kts | 195° |
| 2026-05-08 20:13 | 49.57348 | 3.64987 | 16460 ft | 352 kts | 214° |
| 2026-05-08 20:13 | 49.55419 | 3.62708 | 16088 ft | 347 kts | 220° |
| 2026-05-08 20:13 | 49.53581 | 3.60323 | 16051 ft | 345 kts | 220° |
| 2026-05-08 20:14 | 49.51756 | 3.57926 | 15900 ft | 345 kts | 220° |
| 2026-05-08 20:14 | 49.49926 | 3.55521 | 15729 ft | 346 kts | 220° |
| 2026-05-08 20:14 | 49.48095 | 3.53124 | 15615 ft | 345 kts | 220° |
| 2026-05-08 20:14 | 49.46251 | 3.50730 | 15559 ft | 348 kts | 220° |
| 2026-05-08 20:15 | 49.44390 | 3.48326 | 15561 ft | 350 kts | 220° |
| 2026-05-08 20:15 | 49.42554 | 3.45878 | 15547 ft | 348 kts | 226° |
| 2026-05-08 20:15 | 49.41217 | 3.42805 | 15518 ft | 347 kts | 247° |
| 2026-05-08 20:15 | 49.40334 | 3.39358 | 15467 ft | 348 kts | 248° |
| 2026-05-08 20:16 | 49.39430 | 3.35904 | 15476 ft | 350 kts | 248° |
| 2026-05-08 20:16 | 49.38521 | 3.32483 | 15421 ft | 342 kts | 248° |
| 2026-05-08 20:16 | 49.37632 | 3.29155 | 15347 ft | 332 kts | 248° |
| 2026-05-08 20:16 | 49.36772 | 3.25942 | 15251 ft | 319 kts | 248° |
| 2026-05-08 20:17 | 49.35946 | 3.22849 | 15151 ft | 308 kts | 248° |
| 2026-05-08 20:17 | 49.35134 | 3.19802 | 15124 ft | 309 kts | 247° |
| 2026-05-08 20:17 | 49.34317 | 3.16752 | 15084 ft | 309 kts | 247° |
| 2026-05-08 20:17 | 49.33505 | 3.13730 | 15077 ft | 305 kts | 247° |
| 2026-05-08 20:18 | 49.32699 | 3.10734 | 15070 ft | 303 kts | 247° |
| 2026-05-08 20:18 | 49.31892 | 3.07746 | 15040 ft | 303 kts | 247° |
| 2026-05-08 20:18 | 49.31087 | 3.04772 | 14835 ft | 301 kts | 247° |
| 2026-05-08 20:18 | 49.30286 | 3.01819 | 14509 ft | 299 kts | 247° |
| 2026-05-08 20:19 | 49.29488 | 2.98877 | 14120 ft | 298 kts | 247° |
| 2026-05-08 20:19 | 49.28691 | 2.95946 | 13724 ft | 297 kts | 247° |
| 2026-05-08 20:19 | 49.27898 | 2.93033 | 13334 ft | 295 kts | 247° |
| 2026-05-08 20:19 | 49.27110 | 2.90144 | 12934 ft | 293 kts | 247° |
| 2026-05-08 20:20 | 49.26328 | 2.87280 | 12586 ft | 290 kts | 247° |
| 2026-05-08 20:20 | 49.25555 | 2.84449 | 12251 ft | 287 kts | 247° |
| 2026-05-08 20:20 | 49.24788 | 2.81647 | 11870 ft | 285 kts | 247° |
| 2026-05-08 20:20 | 49.24035 | 2.78894 | 11485 ft | 283 kts | 247° |
| 2026-05-08 20:21 | 49.23275 | 2.76125 | 11144 ft | 281 kts | 247° |
| 2026-05-08 20:21 | 49.22516 | 2.73360 | 11096 ft | 284 kts | 247° |
| 2026-05-08 20:21 | 49.21751 | 2.70578 | 11065 ft | 279 kts | 247° |
| 2026-05-08 20:21 | 49.21032 | 2.67961 | 11040 ft | 257 kts | 247° |
| 2026-05-08 20:22 | 49.20351 | 2.65486 | 11061 ft | 249 kts | 247° |
| 2026-05-08 20:22 | 49.19670 | 2.63016 | 11089 ft | 255 kts | 247° |
| 2026-05-08 20:22 | 49.19203 | 2.61326 | 11060 ft | 255 kts | 247° |
| 2026-05-08 20:22 | 49.18512 | 2.58826 | 10833 ft | 255 kts | 247° |
| 2026-05-08 20:23 | 49.17999 | 2.56282 | 10424 ft | 249 kts | 263° |
| 2026-05-08 20:23 | 49.17910 | 2.53682 | 10050 ft | 247 kts | 269° |
| 2026-05-08 20:23 | 49.17899 | 2.51066 | 9652 ft | 245 kts | 269° |
| 2026-05-08 20:23 | 49.17880 | 2.48474 | 9243 ft | 243 kts | 268° |
| 2026-05-08 20:24 | 49.17845 | 2.45899 | 8812 ft | 243 kts | 268° |
| 2026-05-08 20:24 | 49.17797 | 2.43323 | 8389 ft | 242 kts | 268° |
| 2026-05-08 20:24 | 49.17744 | 2.40755 | 7952 ft | 242 kts | 267° |
| 2026-05-08 20:24 | 49.17688 | 2.38192 | 7575 ft | 240 kts | 267° |
| 2026-05-08 20:25 | 49.17630 | 2.35642 | 7141 ft | 241 kts | 267° |
| 2026-05-08 20:25 | 49.17572 | 2.33083 | 6720 ft | 241 kts | 267° |
| 2026-05-08 20:25 | 49.17417 | 2.30562 | 6247 ft | 238 kts | 251° |
| 2026-05-08 20:25 | 49.16760 | 2.28254 | 5710 ft | 238 kts | 242° |
| 2026-05-08 20:26 | 49.16014 | 2.25983 | 5266 ft | 239 kts | 242° |
| 2026-05-08 20:26 | 49.15274 | 2.23710 | 4856 ft | 239 kts | 242° |
| 2026-05-08 20:26 | 49.14535 | 2.21442 | 4447 ft | 238 kts | 242° |
| 2026-05-08 20:26 | 49.13793 | 2.19190 | 4073 ft | 237 kts | 242° |
| 2026-05-08 20:27 | 49.13036 | 2.16914 | 4027 ft | 243 kts | 242° |
| 2026-05-08 20:27 | 49.12269 | 2.14616 | 4007 ft | 242 kts | 242° |
| 2026-05-08 20:27 | 49.11509 | 2.12344 | 3992 ft | 238 kts | 242° |
| 2026-05-08 20:27 | 49.10760 | 2.10101 | 3994 ft | 237 kts | 242° |
| 2026-05-08 20:28 | 49.10010 | 2.07853 | 4004 ft | 238 kts | 242° |
| 2026-05-08 20:28 | 49.09261 | 2.05601 | 4006 ft | 238 kts | 242° |
| 2026-05-08 20:28 | 49.08507 | 2.03345 | 4006 ft | 239 kts | 242° |
| 2026-05-08 20:28 | 49.07752 | 2.01087 | 4003 ft | 239 kts | 242° |
| 2026-05-08 20:29 | 49.06994 | 1.98829 | 4000 ft | 239 kts | 242° |
| 2026-05-08 20:29 | 49.06237 | 1.96574 | 4006 ft | 238 kts | 242° |
| 2026-05-08 20:29 | 49.05499 | 1.94381 | 3988 ft | 226 kts | 242° |
| 2026-05-08 20:29 | 49.04805 | 1.92312 | 4023 ft | 221 kts | 242° |
| 2026-05-08 20:30 | 49.04108 | 1.90232 | 3998 ft | 219 kts | 242° |
| 2026-05-08 20:30 | 49.03241 | 1.88388 | 3985 ft | 212 kts | 215° |
| 2026-05-08 20:30 | 49.01905 | 1.87613 | 3999 ft | 207 kts | 178° |
| 2026-05-08 20:30 | 49.00544 | 1.88205 | 4014 ft | 207 kts | 142° |
| 2026-05-08 20:31 | 48.99702 | 1.89936 | 4007 ft | 207 kts | 106° |
| 2026-05-08 20:31 | 48.99537 | 1.92085 | 4012 ft | 204 kts | 92° |
| 2026-05-08 20:31 | 48.99513 | 1.94259 | 4006 ft | 207 kts | 89° |
| 2026-05-08 20:31 | 48.99559 | 1.96456 | 4003 ft | 209 kts | 87° |
| 2026-05-08 20:32 | 48.99645 | 1.98659 | 3992 ft | 207 kts | 86° |
| 2026-05-08 20:32 | 48.99746 | 2.00794 | 3979 ft | 197 kts | 86° |
| 2026-05-08 20:32 | 48.99850 | 2.02838 | 3985 ft | 193 kts | 86° |
| 2026-05-08 20:32 | 48.99958 | 2.04913 | 4010 ft | 201 kts | 86° |
| 2026-05-08 20:33 | 49.00071 | 2.07059 | 4013 ft | 205 kts | 86° |
| 2026-05-08 20:33 | 49.00185 | 2.09197 | 3996 ft | 203 kts | 86° |
| 2026-05-08 20:33 | 49.00295 | 2.11265 | 4008 ft | 189 kts | 86° |
| 2026-05-08 20:33 | 49.00399 | 2.13230 | 3990 ft | 184 kts | 86° |
| 2026-05-08 20:34 | 49.00501 | 2.15169 | 4001 ft | 184 kts | 86° |
| 2026-05-08 20:34 | 49.00604 | 2.17115 | 4008 ft | 185 kts | 86° |
| 2026-05-08 20:34 | 49.00811 | 2.21022 | 3999 ft | 185 kts | 86° |
| 2026-05-08 20:35 | 49.00915 | 2.22981 | 3992 ft | 186 kts | 86° |
| 2026-05-08 20:35 | 49.01018 | 2.24947 | 3935 ft | 189 kts | 86° |
| 2026-05-08 20:35 | 49.01124 | 2.26948 | 3679 ft | 188 kts | 86° |
| 2026-05-08 20:35 | 49.01227 | 2.28906 | 3431 ft | 181 kts | 86° |
| 2026-05-08 20:36 | 49.01327 | 2.30782 | 3225 ft | 179 kts | 85° |
| 2026-05-08 20:36 | 49.01428 | 2.32698 | 2961 ft | 182 kts | 85° |
| 2026-05-08 20:36 | 49.01529 | 2.34612 | 2723 ft | 181 kts | 85° |
| 2026-05-08 20:36 | 49.01629 | 2.36503 | 2484 ft | 178 kts | 85° |
| 2026-05-08 20:37 | 49.01728 | 2.38366 | 2233 ft | 172 kts | 85° |
| 2026-05-08 20:37 | 49.01821 | 2.40114 | 2002 ft | 158 kts | 85° |
| 2026-05-08 20:37 | 49.01904 | 2.41689 | 1813 ft | 143 kts | 85° |
| 2026-05-08 20:37 | 49.01982 | 2.43191 | 1632 ft | 142 kts | 84° |
| 2026-05-08 20:38 | 49.02061 | 2.44694 | 1411 ft | 142 kts | 85° |
| 2026-05-08 20:38 | 49.02140 | 2.46189 | 1231 ft | 143 kts | 84° |
| 2026-05-08 20:38 | 49.02223 | 2.47712 | 1027 ft | 145 kts | 84° |
| 2026-05-08 20:38 | 49.02304 | 2.49252 | 829 ft | 146 kts | 84° |
| 2026-05-08 20:39 | 49.02385 | 2.50783 | 615 ft | 145 kts | 84° |
| 2026-05-08 20:39 | 49.02461 | 2.52316 | 412 ft | 145 kts | 83° |
| 2026-05-08 20:39 | 49.02545 | 2.53809 | 368 ft | 132 kts | 85° |
| 2026-05-08 20:39 | 49.02604 | 2.54929 | 363 ft | 79 kts | 85° |
| 2026-05-08 20:40 | 49.02640 | 2.55592 | 366 ft | 53 kts | 86° |
| 2026-05-08 20:40 | 49.02562 | 2.55915 | 366 ft | 23 kts | 148° |
| 2026-05-08 20:40 | 49.02457 | 2.55950 | 361 ft | 10 kts | 175° |
| 2026-05-08 20:40 | 49.02439 | 2.55952 | 366 ft | 0 kts | 175° |
| 2026-05-08 20:41 | 49.02385 | 2.55958 | 364 ft | 12 kts | 176° |
| 2026-05-08 20:41 | 49.02297 | 2.55968 | 364 ft | 13 kts | 176° |
| 2026-05-08 20:41 | 49.02202 | 2.55981 | 361 ft | 14 kts | 175° |
| 2026-05-08 20:42 | 49.02111 | 2.55967 | 363 ft | 11 kts | 215° |
| 2026-05-08 20:42 | 49.02105 | 2.55958 | 364 ft | 0 kts | 228° |
| 2026-05-08 20:42 | 49.02091 | 2.55926 | 365 ft | 6 kts | 243° |
| 2026-05-08 20:43 | 49.02081 | 2.55829 | 364 ft | 11 kts | 264° |
| 2026-05-08 20:43 | 49.02075 | 2.55713 | 366 ft | 11 kts | 266° |
| 2026-05-08 20:43 | 49.02068 | 2.55574 | 361 ft | 16 kts | 265° |
| 2026-05-08 20:43 | 49.02058 | 2.55407 | 359 ft | 16 kts | 265° |
| 2026-05-08 20:44 | 49.02049 | 2.55240 | 359 ft | 16 kts | 265° |
| 2026-05-08 20:44 | 49.02040 | 2.55072 | 363 ft | 16 kts | 265° |
| 2026-05-08 20:44 | 49.02031 | 2.54896 | 366 ft | 17 kts | 265° |
| 2026-05-08 20:44 | 49.02021 | 2.54715 | 360 ft | 17 kts | 265° |
| 2026-05-08 20:45 | 49.02010 | 2.54512 | 363 ft | 19 kts | 266° |
| 2026-05-08 20:45 | 49.02004 | 2.54380 | 366 ft | 18 kts | 265° |
| 2026-05-08 20:45 | 49.01964 | 2.54162 | 368 ft | 15 kts | 222° |
| 2026-05-08 20:45 | 49.01863 | 2.54128 | 363 ft | 15 kts | 190° |
| 2026-05-08 20:46 | 49.01804 | 2.54009 | 366 ft | 15 kts | 264° |
| 2026-05-08 20:46 | 49.01795 | 2.53846 | 363 ft | 18 kts | 265° |
| 2026-05-08 20:46 | 49.01783 | 2.53636 | 362 ft | 20 kts | 265° |
| 2026-05-08 20:46 | 49.01768 | 2.53365 | 359 ft | 29 kts | 265° |
| 2026-05-08 20:47 | 49.01751 | 2.53060 | 363 ft | 29 kts | 265° |
| 2026-05-08 20:47 | 49.01739 | 2.52801 | 363 ft | 21 kts | 265° |
| 2026-05-08 20:47 | 49.01730 | 2.52640 | 366 ft | 14 kts | 265° |
| 2026-05-08 20:47 | 49.01722 | 2.52487 | 361 ft | 15 kts | 265° |
| 2026-05-08 20:48 | 49.01710 | 2.52285 | 363 ft | 22 kts | 265° |
| 2026-05-08 20:48 | 49.01698 | 2.52056 | 359 ft | 22 kts | 265° |
| 2026-05-08 20:48 | 49.01688 | 2.51826 | 365 ft | 22 kts | 266° |
| 2026-05-08 20:48 | 49.01674 | 2.51597 | 365 ft | 22 kts | 265° |
| 2026-05-08 20:49 | 49.01661 | 2.51367 | 359 ft | 22 kts | 264° |
| 2026-05-08 20:49 | 49.01649 | 2.51138 | 360 ft | 22 kts | 265° |
| 2026-05-08 20:49 | 49.01636 | 2.50908 | 361 ft | 22 kts | 264° |
| 2026-05-08 20:49 | 49.01626 | 2.50718 | 359 ft | 16 kts | 265° |
| 2026-05-08 20:50 | 49.01616 | 2.50544 | 361 ft | 17 kts | 265° |
| 2026-05-08 20:50 | 49.01609 | 2.50397 | 359 ft | 11 kts | 265° |
| 2026-05-08 20:50 | 49.01604 | 2.50294 | 364 ft | 9 kts | 266° |
| 2026-05-08 20:50 | 49.01602 | 2.50217 | 365 ft | 6 kts | 280° |
| 2026-05-08 20:51 | 49.01642 | 2.50187 | 363 ft | 7 kts | 351° |
| 2026-05-08 20:51 | 49.01686 | 2.50179 | 363 ft | 5 kts | 354° |
| 2026-05-08 20:51 | 49.01710 | 2.50176 | 363 ft | 3 kts | 354° |
| 2026-05-08 20:51 | 49.01721 | 2.50175 | 362 ft | 1 kts | 355° |
| 2026-05-08 20:52 | 49.01725 | 2.50174 | 361 ft | 0 kts | 355° |